< < Back
Terminal Aerodrome Forecast


Current Version              Previous Versions:   1  2  3  4  5  6  7  8  9  

Terminal Aerodrome Forecast

639
FTUS42 KBMX 211700
TAFTCL
TAF
KTCL 211731Z 2118/2218 34007KT P6SM SKC
     FM220300 00000KT P6SM SKC
     FM221400 02007KT P6SM SKC=

Latest METAR

632
SAUS70 KWBC 220100 RRH
MTRTCL
METAR KTCL 220053Z 36007KT 10SM CLR 18/10 A3002 RMK AO2 SLP164
T01830100


USA.gov is the U.S. government's official web portal to all federal, state and local government web resources and services.